Whitefish, Montana
Current Conditions -  °F | °C
As of 1:55 AM on Thursday 23 Oct 2014 (Local Time) from KGPI Reporting Station
Overcast Overcast  
Wind Chill: 53°   Ceiling: 6000
Heat Index: 53°   Visibility: 10mi
Dew Point: 39°   Wind: 9mph
Humidity: 59%   Direction: 240°WSW
Pressure: 29.83"   Gusts: NA
Location:  48.41°N, 114.34°W
Report Text: KGPI 230755Z AUTO 24008KT 10SM OVC060 12/04 A2983 RMK AO2 SLP098 T01170039
Loading
Personal Weather Stations






























Interactive Weather Map
Tropical Storm Tracking
New forecast layout! Learn more

10-Day Weather Forecast

Advertisements
Track Severe Weather on mobile